Terminal Aerodrome Forecast
Issued by NWS Jackson, MS

Home | Current Version | Previous Version | Text Only | Print | Product List | Glossary On
Versions: 1 2 3 4 5 6 7 8 9 10 11 12 13 14 15
000
FTUS44 KJAN 250356 AAA
TAFHBG
TAF AMD
KHBG 250356Z 2504/2524 18007KT P6SM VCSH SCT015 BKN022 BKN060
     FM250600 18009KT P6SM BKN015 BKN250
     FM250800 19008KT P6SM VCSH BKN008 BKN130
     FM251100 20009KT P6SM -SHRA VCTS BKN015 BKN050CB BKN130
     FM251500 34005KT P6SM SHRA BKN015 OVC025=

USA.gov is the U.S. government's official web portal to all federal, state and local government web resources and services.